createdAt,value
2022-11-29T00:01:37.148Z,6.78
2022-11-29T00:04:04.878Z,7.47
2022-11-29T00:06:34.941Z,7.65
2022-11-29T00:09:06.631Z,6.60
2022-11-29T00:11:54.754Z,6.82
2022-11-29T00:14:23.280Z,7.10
2022-11-29T00:16:56.678Z,6.88
2022-11-29T00:21:51.448Z,6.88
2022-11-29T00:24:18.963Z,6.20
2022-11-29T00:26:46.292Z,7.25
2022-11-29T00:29:13.902Z,6.43
2022-11-29T00:31:41.638Z,6.68
2022-11-29T00:34:11.045Z,6.60
2022-11-29T00:36:38.978Z,6.90
2022-11-29T00:39:06.827Z,7.32
2022-11-29T00:41:34.240Z,6.25
2022-11-29T00:44:01.516Z,6.28
2022-11-29T00:46:28.736Z,6.30
2022-11-29T00:48:55.990Z,6.55
2022-11-29T00:51:23.043Z,6.28
2022-11-29T00:53:50.378Z,6.20
2022-11-29T00:56:17.575Z,6.20
2022-11-29T00:58:44.812Z,6.75
2022-11-29T01:01:12.181Z,6.82
2022-11-29T01:03:39.946Z,6.90
2022-11-29T01:06:11.794Z,6.18
2022-11-29T01:08:39.472Z,5.80
2022-11-29T01:11:15.898Z,6.20
2022-11-29T01:13:44.926Z,5.95
2022-11-29T01:16:13.326Z,6.18
2022-11-29T01:18:40.541Z,5.32
2022-11-29T01:21:13.562Z,6.45
2022-11-29T01:23:41.581Z,6.25
2022-11-29T01:26:12.194Z,6.28
2022-11-29T01:28:41.102Z,5.93
2022-11-29T01:31:14.664Z,5.20
2022-11-29T01:33:42.517Z,5.50
2022-11-29T01:36:12.311Z,4.97
2022-11-29T01:38:39.833Z,5.85
2022-11-29T01:41:11.224Z,5.50
2022-11-29T01:44:01.566Z,5.30
2022-11-29T01:46:34.918Z,4.22
2022-11-29T01:51:34.903Z,4.80
2022-11-29T01:54:02.731Z,4.47
2022-11-29T01:56:32.927Z,4.25
2022-11-29T01:59:06.112Z,3.70
2022-11-29T02:01:35.011Z,4.25
2022-11-29T02:04:02.315Z,3.88
2022-11-29T02:06:30.374Z,3.95
2022-11-29T02:08:57.552Z,4.07
2022-11-29T02:11:54.116Z,3.85
2022-11-29T02:14:28.137Z,3.92
2022-11-29T02:17:32.460Z,3.50
2022-11-29T02:20:32.412Z,4.38
2022-11-29T02:23:02.491Z,4.15
2022-11-29T02:26:03.750Z,4.13
2022-11-29T02:29:25.099Z,4.38
2022-11-29T02:31:52.255Z,4.43
2022-11-29T02:34:41.020Z,4.50
2022-11-29T02:37:28.457Z,4.70
2022-11-29T02:40:24.062Z,5.00
2022-11-29T02:43:03.345Z,4.20
2022-11-29T02:45:49.174Z,4.30
2022-11-29T02:48:25.590Z,4.18
2022-11-29T02:51:14.598Z,4.30
2022-11-29T02:53:55.520Z,4.18
2022-11-29T02:56:45.446Z,3.95
2022-11-29T02:59:48.886Z,4.03
2022-11-29T03:02:34.755Z,4.13
2022-11-29T03:05:16.711Z,3.72
2022-11-29T03:07:56.092Z,4.03
2022-11-29T03:10:29.273Z,4.13
2022-11-29T03:12:57.547Z,3.83
2022-11-29T03:15:37.198Z,4.03
2022-11-29T03:18:06.957Z,3.95
2022-11-29T03:20:45.917Z,3.50
2022-11-29T03:23:28.216Z,3.80
2022-11-29T03:26:13.715Z,3.90
2022-11-29T03:28:43.624Z,3.92
2022-11-29T03:31:27.435Z,3.65
2022-11-29T03:34:13.407Z,4.10
2022-11-29T03:37:07.339Z,3.40
2022-11-29T03:42:21.999Z,3.90
2022-11-29T03:45:22.101Z,3.40
2022-11-29T03:48:03.636Z,3.55
2022-11-29T03:50:39.439Z,3.72
2022-11-29T03:53:34.603Z,4.00
2022-11-29T03:56:05.362Z,3.85
2022-11-29T03:58:47.786Z,3.55
2022-11-29T04:01:39.174Z,3.40
2022-11-29T04:04:19.796Z,3.72
2022-11-29T04:06:56.031Z,3.53
2022-11-29T04:09:23.269Z,3.35
2022-11-29T04:12:09.217Z,3.38
2022-11-29T04:14:48.287Z,3.97
2022-11-29T04:17:27.190Z,3.95
2022-11-29T04:20:18.186Z,3.60
2022-11-29T04:23:03.413Z,4.30
2022-11-29T04:25:33.226Z,4.55
2022-11-29T04:28:31.242Z,4.75
2022-11-29T04:31:38.618Z,4.45
2022-11-29T04:34:18.712Z,4.32
2022-11-29T04:37:16.967Z,4.45
2022-11-29T04:39:59.467Z,4.32
2022-11-29T04:42:55.056Z,5.30
2022-11-29T04:45:46.281Z,4.70
2022-11-29T04:48:40.435Z,4.82
2022-11-29T04:51:41.531Z,6.07
2022-11-29T04:54:35.912Z,6.30
2022-11-29T04:57:26.082Z,6.43
2022-11-29T04:59:59.141Z,5.53
2022-11-29T05:02:47.658Z,4.47
2022-11-29T05:05:33.255Z,4.80
2022-11-29T05:08:24.938Z,5.00
2022-11-29T05:11:27.057Z,4.93
2022-11-29T05:14:21.969Z,5.72
2022-11-29T05:17:25.696Z,5.55
2022-11-29T05:20:13.319Z,6.50
2022-11-29T05:22:53.178Z,6.25
2022-11-29T05:25:45.316Z,7.40
2022-11-29T05:28:36.552Z,6.35
2022-11-29T05:31:03.739Z,6.30
2022-11-29T05:33:42.838Z,6.55
2022-11-29T05:36:28.763Z,6.53
2022-11-29T05:39:00.832Z,6.28
2022-11-29T05:41:47.739Z,6.47
2022-11-29T05:44:25.630Z,5.93
2022-11-29T05:47:01.899Z,6.20
2022-11-29T05:50:03.010Z,7.15
2022-11-29T05:52:49.819Z,5.85
2022-11-29T05:55:37.850Z,5.97
2022-11-29T05:58:20.079Z,6.05
2022-11-29T06:00:59.935Z,5.90
2022-11-29T06:03:33.025Z,6.28
2022-11-29T06:06:15.795Z,5.72
2022-11-29T06:09:40.169Z,6.38
2022-11-29T06:12:20.659Z,6.80
2022-11-29T06:14:55.714Z,6.00
2022-11-29T06:17:53.115Z,6.20
2022-11-29T06:20:38.722Z,6.13
2022-11-29T06:23:45.082Z,5.57
2022-11-29T06:26:17.117Z,4.85
2022-11-29T06:29:19.454Z,5.28
2022-11-29T06:32:15.758Z,5.72
2022-11-29T06:34:55.093Z,6.53
2022-11-29T06:37:39.954Z,5.38
2022-11-29T06:40:11.157Z,6.10
2022-11-29T06:42:38.476Z,6.43
2022-11-29T06:45:06.975Z,6.90
2022-11-29T06:47:53.299Z,6.88
2022-11-29T06:50:39.188Z,7.15
2022-11-29T06:53:32.487Z,6.93
2022-11-29T06:56:03.543Z,6.50
2022-11-29T06:58:38.617Z,6.68
2022-11-29T07:01:40.150Z,7.20
2022-11-29T07:04:46.289Z,7.65
2022-11-29T07:07:18.874Z,7.13
2022-11-29T07:09:49.629Z,7.20
2022-11-29T07:12:20.960Z,7.70
2022-11-29T07:14:48.818Z,8.60
2022-11-29T07:17:20.768Z,8.10
2022-11-29T07:20:23.827Z,7.78
2022-11-29T07:23:00.206Z,8.05
2022-11-29T07:26:01.722Z,8.65
2022-11-29T07:28:43.439Z,8.27
2022-11-29T07:31:44.910Z,8.07
2022-11-29T07:34:25.625Z,8.70
2022-11-29T07:37:22.112Z,9.25
2022-11-29T07:40:12.581Z,9.85
2022-11-29T07:42:50.079Z,8.90
2022-11-29T07:45:32.031Z,8.52
2022-11-29T07:47:59.732Z,8.82
2022-11-29T07:50:28.896Z,8.82
2022-11-29T07:52:57.055Z,9.02
2022-11-29T07:55:26.286Z,8.30
2022-11-29T07:57:53.973Z,8.23
2022-11-29T08:00:21.610Z,7.90
2022-11-29T08:02:50.278Z,8.35
2022-11-29T08:05:18.440Z,7.13
2022-11-29T08:07:47.493Z,7.53
2022-11-29T08:10:16.495Z,7.18
2022-11-29T08:12:46.150Z,7.18
2022-11-29T08:15:19.350Z,7.75
2022-11-29T08:17:46.953Z,9.07
2022-11-29T08:20:16.718Z,10.40
2022-11-29T08:22:44.198Z,8.35
2022-11-29T08:25:11.908Z,8.40
2022-11-29T08:27:40.593Z,7.68
2022-11-29T08:30:08.762Z,8.35
2022-11-29T08:32:35.946Z,7.68
2022-11-29T08:35:03.862Z,8.02
2022-11-29T08:37:31.966Z,7.43
2022-11-29T08:40:04.844Z,7.72
2022-11-29T08:42:32.266Z,7.93
2022-11-29T08:44:59.888Z,7.50
2022-11-29T08:47:39.116Z,7.15
2022-11-29T08:50:16.054Z,7.32
2022-11-29T08:53:06.969Z,7.13
2022-11-29T08:55:38.014Z,6.88
2022-11-29T08:58:32.879Z,6.68
2022-11-29T09:01:06.608Z,6.63
2022-11-29T09:03:53.802Z,6.65
2022-11-29T09:06:21.420Z,7.15
2022-11-29T09:08:48.762Z,7.10
2022-11-29T09:11:26.687Z,6.90
2022-11-29T09:14:08.182Z,6.57
2022-11-29T09:16:38.067Z,6.72
2022-11-29T09:19:06.068Z,5.93
2022-11-29T09:21:36.769Z,6.45
2022-11-29T09:24:06.720Z,5.53
2022-11-29T09:26:37.069Z,6.00
2022-11-29T09:29:06.706Z,6.32
2022-11-29T09:31:35.297Z,7.97
2022-11-29T09:34:03.137Z,7.35
2022-11-29T09:36:31.460Z,6.72
2022-11-29T09:39:02.909Z,6.28
2022-11-29T09:41:33.300Z,5.47
2022-11-29T09:44:22.503Z,5.45
2022-11-29T09:47:00.624Z,4.72
2022-11-29T09:49:48.903Z,4.32
2022-11-29T09:52:47.100Z,4.35
2022-11-29T09:55:36.973Z,5.13
2022-11-29T09:58:10.867Z,5.15
2022-11-29T10:00:47.634Z,3.95
2022-11-29T10:03:29.921Z,3.70
2022-11-29T10:06:12.011Z,4.30
2022-11-29T10:09:04.393Z,3.55
2022-11-29T10:11:44.007Z,4.18
2022-11-29T10:14:22.672Z,3.85
2022-11-29T10:17:04.260Z,4.50
2022-11-29T10:19:44.835Z,4.40
2022-11-29T10:22:26.666Z,4.25
2022-11-29T10:24:59.479Z,4.43
2022-11-29T10:27:29.908Z,4.30
2022-11-29T10:30:01.164Z,4.97
2022-11-29T10:32:32.412Z,4.38
2022-11-29T10:35:01.123Z,4.72
2022-11-29T10:37:32.944Z,4.13
2022-11-29T10:40:04.740Z,4.55
2022-11-29T10:42:52.633Z,4.03
2022-11-29T10:45:28.519Z,4.35
2022-11-29T10:48:02.335Z,4.40
2022-11-29T10:50:32.183Z,3.90
2022-11-29T10:53:10.220Z,4.50
2022-11-29T10:55:49.973Z,3.97
2022-11-29T10:58:28.322Z,4.68
2022-11-29T11:00:59.702Z,4.40
2022-11-29T11:03:38.043Z,4.65
2022-11-29T11:06:13.345Z,4.70
2022-11-29T11:08:53.262Z,4.85
2022-11-29T11:11:32.367Z,5.05
2022-11-29T11:14:07.236Z,4.40
2022-11-29T11:16:37.628Z,4.50
2022-11-29T11:19:40.528Z,4.28
2022-11-29T11:22:10.811Z,3.80
2022-11-29T11:24:42.363Z,3.60
2022-11-29T11:27:09.921Z,3.90
2022-11-29T11:29:44.773Z,3.30
2022-11-29T11:32:19.871Z,3.25
2022-11-29T11:34:58.428Z,2.80
2022-11-29T11:37:33.513Z,2.90
2022-11-29T11:40:26.687Z,3.20
2022-11-29T11:42:54.348Z,3.03
2022-11-29T11:45:54.515Z,3.10
2022-11-29T11:48:22.506Z,2.67
2022-11-29T11:50:56.664Z,8.50
2022-11-29T11:53:36.867Z,2.70
2022-11-29T11:56:10.781Z,3.00
2022-11-29T11:58:43.631Z,2.70
2022-11-29T12:01:17.648Z,2.60
2022-11-29T12:04:10.415Z,2.60
2022-11-29T12:06:43.332Z,2.58
2022-11-29T12:09:46.476Z,2.53
2022-11-29T12:12:26.068Z,2.67
2022-11-29T12:14:53.313Z,3.33
2022-11-29T12:17:41.853Z,3.05
2022-11-29T12:20:18.157Z,2.38
2022-11-29T12:23:12.747Z,2.20
2022-11-29T12:26:19.251Z,2.83
2022-11-29T12:28:51.663Z,2.92
2022-11-29T12:31:30.812Z,2.60
2022-11-29T12:34:21.005Z,2.85
2022-11-29T12:37:11.850Z,2.35
2022-11-29T12:40:03.627Z,2.80
2022-11-29T12:42:48.868Z,2.30
2022-11-29T12:45:21.688Z,2.33
2022-11-29T12:48:10.419Z,2.78
2022-11-29T12:51:19.246Z,2.70
2022-11-29T12:54:05.097Z,2.35
2022-11-29T12:57:15.209Z,2.75
2022-11-29T13:00:10.546Z,3.17
2022-11-29T13:03:03.496Z,3.10
2022-11-29T13:05:45.456Z,2.80
2022-11-29T13:08:21.006Z,3.00
2022-11-29T13:11:07.341Z,2.97
2022-11-29T13:13:37.430Z,3.17
2022-11-29T13:16:31.487Z,3.10
2022-11-29T13:19:36.207Z,2.78
2022-11-29T13:22:22.401Z,3.00
2022-11-29T13:24:57.972Z,2.67
2022-11-29T13:27:31.719Z,3.10
2022-11-29T13:30:01.103Z,2.50
2022-11-29T13:32:40.212Z,2.83
2022-11-29T13:35:20.791Z,2.90
2022-11-29T13:38:29.268Z,3.03
2022-11-29T13:41:13.257Z,2.95
2022-11-29T13:43:48.826Z,3.00
2022-11-29T13:46:28.194Z,3.42
2022-11-29T13:48:55.766Z,3.55
2022-11-29T13:51:22.917Z,3.30
2022-11-29T13:53:50.638Z,3.30
2022-11-29T13:56:43.363Z,3.50
2022-11-29T13:59:18.948Z,4.25
2022-11-29T14:01:50.585Z,3.85
2022-11-29T14:04:27.670Z,3.70
2022-11-29T14:07:14.876Z,3.40
2022-11-29T14:09:59.464Z,3.60
2022-11-29T14:12:54.523Z,3.95
2022-11-29T14:15:32.266Z,3.83
2022-11-29T14:18:00.330Z,3.17
2022-11-29T14:20:28.708Z,3.75
2022-11-29T14:23:05.002Z,3.38
2022-11-29T14:25:51.535Z,3.53
2022-11-29T14:28:22.632Z,3.40
2022-11-29T14:30:52.898Z,3.88
2022-11-29T14:33:35.936Z,3.85
2022-11-29T14:36:15.177Z,4.18
2022-11-29T14:38:55.078Z,4.00
2022-11-29T14:41:37.506Z,3.75
2022-11-29T14:44:22.651Z,4.68
2022-11-29T14:47:04.281Z,4.47
2022-11-29T14:49:39.112Z,4.47
2022-11-29T14:52:28.960Z,4.20
2022-11-29T14:55:09.326Z,3.65
2022-11-29T14:57:51.615Z,4.03
2022-11-29T15:00:27.946Z,4.30
2022-11-29T15:03:17.957Z,4.03
2022-11-29T15:05:49.250Z,4.47
2022-11-29T15:08:38.460Z,4.40
2022-11-29T15:11:13.937Z,4.20
2022-11-29T15:14:11.837Z,4.18
2022-11-29T15:17:13.112Z,4.45
2022-11-29T15:20:19.502Z,4.70
2022-11-29T15:22:54.625Z,4.47
2022-11-29T15:25:28.659Z,4.15
2022-11-29T15:28:04.089Z,4.80
2022-11-29T15:30:40.139Z,4.57
2022-11-29T15:33:28.583Z,4.90
2022-11-29T15:36:05.852Z,5.03
2022-11-29T15:38:52.351Z,4.30
2022-11-29T15:41:31.724Z,4.63
2022-11-29T15:44:03.619Z,4.40
2022-11-29T15:46:34.037Z,4.72
2022-11-29T15:49:25.276Z,4.95
2022-11-29T15:52:02.201Z,6.20
2022-11-29T15:54:33.520Z,5.15
2022-11-29T15:57:06.641Z,5.22
2022-11-29T15:59:51.857Z,5.43
2022-11-29T16:02:24.394Z,4.80
2022-11-29T16:04:56.335Z,5.63
2022-11-29T16:07:26.057Z,5.95
2022-11-29T16:10:04.858Z,5.80
2022-11-29T16:12:32.734Z,5.93
2022-11-29T16:15:01.459Z,6.15
2022-11-29T16:17:31.855Z,5.80
2022-11-29T16:20:14.031Z,5.93
2022-11-29T16:22:41.292Z,6.68
2022-11-29T16:25:19.193Z,5.95
2022-11-29T16:27:47.838Z,6.70
2022-11-29T16:30:23.530Z,6.47
2022-11-29T16:33:03.757Z,6.53
2022-11-29T16:35:34.214Z,6.03
2022-11-29T16:38:04.780Z,6.10
2022-11-29T16:40:34.705Z,7.18
2022-11-29T16:43:04.935Z,6.63
2022-11-29T16:45:42.931Z,6.75
2022-11-29T16:48:28.091Z,6.72
2022-11-29T16:51:10.415Z,6.50
2022-11-29T16:53:39.769Z,6.40
2022-11-29T16:56:11.415Z,5.57
2022-11-29T16:59:24.709Z,5.78
2022-11-29T17:01:31.586Z,6.05
2022-11-29T17:04:00.246Z,6.22
2022-11-29T17:06:29.179Z,5.65
2022-11-29T17:08:58.111Z,6.53
2022-11-29T17:11:26.707Z,6.07
2022-11-29T17:13:54.631Z,6.32
2022-11-29T17:16:24.585Z,6.05
2022-11-29T17:18:55.100Z,5.95
2022-11-29T17:21:27.675Z,6.80
2022-11-29T17:23:54.870Z,6.30
2022-11-29T17:26:22.947Z,6.00
2022-11-29T17:28:52.437Z,6.63
2022-11-29T17:31:21.917Z,6.68
2022-11-29T17:33:49.401Z,6.60
2022-11-29T17:36:19.713Z,7.75
2022-11-29T17:38:48.750Z,6.00
2022-11-29T17:41:22.964Z,7.50
2022-11-29T17:43:55.417Z,7.93
2022-11-29T17:46:32.076Z,7.13
2022-11-29T17:49:01.420Z,6.82
2022-11-29T17:51:51.027Z,8.35
2022-11-29T17:54:18.048Z,6.72
2022-11-29T17:56:45.709Z,6.72
2022-11-29T17:59:13.564Z,8.20
2022-11-29T18:01:41.451Z,6.68
2022-11-29T18:04:09.067Z,6.43
2022-11-29T18:06:39.480Z,6.10
2022-11-29T18:09:09.186Z,6.15
2022-11-29T18:11:48.068Z,6.97
2022-11-29T18:14:24.204Z,6.00
2022-11-29T18:16:53.346Z,6.32
2022-11-29T18:19:23.363Z,5.97
2022-11-29T18:21:51.717Z,6.85
2022-11-29T18:24:21.537Z,6.78
2022-11-29T18:26:49.415Z,6.18
2022-11-29T18:29:17.248Z,6.15
2022-11-29T18:31:46.923Z,6.70
2022-11-29T18:34:16.339Z,6.68
2022-11-29T18:36:46.655Z,7.50
2022-11-29T18:39:17.744Z,7.38
2022-11-29T18:41:47.779Z,6.03
2022-11-29T18:44:16.689Z,6.80
2022-11-29T18:46:45.251Z,7.38
2022-11-29T18:49:14.930Z,7.30
2022-11-29T18:51:45.253Z,7.65
2022-11-29T18:54:13.530Z,7.90
2022-11-29T18:56:41.439Z,7.55
2022-11-29T18:59:13.146Z,7.53
2022-11-29T19:01:42.921Z,7.03
2022-11-29T19:04:13.498Z,8.55
2022-11-29T19:06:43.963Z,10.80
2022-11-29T19:09:23.546Z,10.35
2022-11-29T19:11:51.491Z,9.57
2022-11-29T19:14:19.648Z,8.57
2022-11-29T19:16:48.830Z,9.57
2022-11-29T19:19:16.120Z,10.55
2022-11-29T19:21:43.346Z,9.70
2022-11-29T19:24:15.278Z,9.05
2022-11-29T19:26:45.589Z,8.63
2022-11-29T19:29:16.471Z,8.52
2022-11-29T19:31:43.953Z,8.85
2022-11-29T19:34:11.454Z,7.72
2022-11-29T19:36:43.875Z,7.78
2022-11-29T19:39:14.391Z,8.73
2022-11-29T19:41:43.973Z,8.07
2022-11-29T19:44:11.731Z,13.23
2022-11-29T19:46:42.092Z,11.07
2022-11-29T19:49:10.328Z,9.10
2022-11-29T19:51:38.411Z,14.27
2022-11-29T19:54:08.107Z,6.75
2022-11-29T19:56:35.685Z,7.53
2022-11-29T19:59:03.292Z,7.10
2022-11-29T20:01:39.316Z,7.88
2022-11-29T20:04:07.954Z,8.95
2022-11-29T20:06:35.568Z,10.73
2022-11-29T20:09:03.497Z,10.38
2022-11-29T20:11:30.618Z,10.50
2022-11-29T20:14:00.647Z,10.07
2022-11-29T20:16:30.019Z,10.48
2022-11-29T20:18:58.509Z,10.93
2022-11-29T20:21:31.575Z,14.50
2022-11-29T20:24:01.644Z,16.00
2022-11-29T20:26:31.327Z,13.88
2022-11-29T20:28:59.836Z,12.13
2022-11-29T20:31:27.123Z,12.20
2022-11-29T20:33:57.720Z,11.65
2022-11-29T20:36:49.537Z,12.38
2022-11-29T20:39:58.936Z,11.82
2022-11-29T20:42:46.681Z,15.63
2022-11-29T20:45:15.152Z,15.45
2022-11-29T20:47:56.924Z,16.65
2022-11-29T20:50:27.396Z,13.15
2022-11-29T20:53:51.815Z,11.45
2022-11-29T20:56:19.004Z,13.40
2022-11-29T20:58:46.675Z,11.90
2022-11-29T21:01:17.697Z,13.23
2022-11-29T21:03:45.498Z,12.63
2022-11-29T21:06:12.972Z,12.70
2022-11-29T21:08:40.585Z,12.45
2022-11-29T21:11:10.639Z,12.27
2022-11-29T21:13:39.531Z,12.45
2022-11-29T21:16:07.310Z,11.77
2022-11-29T21:18:35.059Z,12.57
2022-11-29T21:21:06.310Z,12.55
2022-11-29T21:23:59.428Z,11.43
2022-11-29T21:26:29.783Z,13.20
2022-11-29T21:29:22.690Z,12.70
2022-11-29T21:31:53.226Z,10.98
2022-11-29T21:34:21.818Z,11.00
2022-11-29T21:36:56.012Z,11.57
2022-11-29T21:39:28.115Z,10.98
2022-11-29T21:41:55.409Z,10.43
2022-11-29T21:44:22.758Z,10.75
2022-11-29T21:46:50.108Z,11.80
2022-11-29T21:49:17.487Z,11.23
2022-11-29T21:51:44.662Z,11.32
2022-11-29T21:54:11.963Z,11.73
2022-11-29T21:56:39.060Z,13.45
2022-11-29T21:59:06.214Z,12.20
2022-11-29T22:01:34.149Z,12.55
2022-11-29T22:04:01.562Z,11.85
2022-11-29T22:06:29.658Z,11.98
2022-11-29T22:08:57.332Z,11.48
2022-11-29T22:11:31.310Z,11.85
2022-11-29T22:14:15.317Z,11.05
2022-11-29T22:16:56.490Z,12.40
2022-11-29T22:19:26.249Z,13.48
2022-11-29T22:22:01.498Z,13.63
2022-11-29T22:24:31.585Z,14.55
2022-11-29T22:26:58.989Z,16.25
2022-11-29T22:29:26.207Z,17.73
2022-11-29T22:31:55.848Z,17.95
2022-11-29T22:34:25.402Z,17.60
2022-11-29T22:36:52.777Z,18.55
2022-11-29T22:39:20.108Z,17.95
2022-11-29T22:41:52.440Z,18.15
2022-11-29T22:44:21.364Z,15.57
2022-11-29T22:46:48.578Z,15.82
2022-11-29T22:49:16.062Z,15.02
2022-11-29T22:51:43.913Z,13.13
2022-11-29T22:54:18.385Z,11.95
2022-11-29T22:56:46.591Z,11.65
2022-11-29T22:59:14.391Z,10.82
2022-11-29T23:01:42.654Z,10.60
2022-11-29T23:04:11.477Z,10.98
2022-11-29T23:06:43.949Z,10.20
2022-11-29T23:09:21.519Z,9.67
2022-11-29T23:11:56.467Z,10.80
2022-11-29T23:14:24.184Z,12.05
2022-11-29T23:16:51.829Z,13.45
2022-11-29T23:19:19.220Z,14.40
2022-11-29T23:21:46.618Z,15.35
2022-11-29T23:24:15.486Z,15.52
2022-11-29T23:26:45.619Z,16.23
2022-11-29T23:29:15.574Z,15.18
2022-11-29T23:31:43.353Z,15.35
2022-11-29T23:34:10.546Z,14.15
2022-11-29T23:36:37.804Z,12.02
2022-11-29T23:39:08.022Z,13.02
2022-11-29T23:41:36.898Z,13.15
2022-11-29T23:44:05.379Z,12.60
2022-11-29T23:46:33.383Z,12.43
2022-11-29T23:49:00.554Z,12.48
2022-11-29T23:51:27.853Z,12.15
2022-11-29T23:53:55.299Z,13.27
2022-11-29T23:56:22.880Z,12.95
2022-11-29T23:58:50.523Z,12.20
